Time;durP1;ratioP1;P1;durP2;ratioP2;P2;SDS_P1;SDS_P2;PMS_P1;PMS_P2;Temp;Humidity;BMP_temperature;BMP_pressure;BME280_temperature;BME280_humidity;BME280_pressure;Samples;Min_cycle;Max_cycle;Signal;HPM_P1;HPM_P2
2022/09/06 00:01:56;;;;;;;9.30;4.03;;;;;;;14.14;85.37;95311.78;5113315;28;20464;-78
2022/09/06 00:04:23;;;;;;;5.63;3.88;;;;;;;14.04;86.16;95317.63;5113507;28;20209;-78
2022/09/06 00:06:49;;;;;;;5.85;4.30;;;;;;;13.92;86.68;95315.66;5112626;28;20660;-78
2022/09/06 00:09:16;;;;;;;5.10;3.58;;;;;;;13.99;86.85;95315.91;5113369;28;20262;-78
2022/09/06 00:11:43;;;;;;;6.22;4.18;;;;;;;13.96;87.07;95313.03;5113163;28;20391;-78
2022/09/06 00:14:10;;;;;;;3.80;3.40;;;;;;;13.99;87.05;95315.09;5113085;28;20198;-77
2022/09/06 00:16:39;;;;;;;4.15;3.13;;;;;;;14.09;86.40;95315.50;5113221;28;20262;-78
2022/09/06 00:19:07;;;;;;;3.08;2.60;;;;;;;14.11;86.59;95317.88;5112879;28;20719;-77
2022/09/06 00:21:34;;;;;;;6.22;3.70;;;;;;;14.07;86.70;95316.97;5112784;28;20220;-78
2022/09/06 00:24:02;;;;;;;4.18;3.20;;;;;;;14.07;86.56;95317.78;5112961;28;20247;-77
2022/09/06 00:26:29;;;;;;;5.10;3.38;;;;;;;14.02;86.80;95314.44;5112704;28;20660;-78
2022/09/06 00:28:57;;;;;;;4.07;3.25;;;;;;;14.00;86.69;95309.31;5111219;28;20202;-77
2022/09/06 00:31:26;;;;;;;3.38;2.90;;;;;;;14.03;86.90;95308.66;5130327;27;20650;-78
2022/09/06 00:33:53;;;;;;;5.68;3.72;;;;;;;14.08;86.42;95308.44;5133255;27;20684;-77
2022/09/06 00:36:23;;;;;;;5.78;3.83;;;;;;;14.06;86.49;95310.72;5132822;27;20700;-78
2022/09/06 00:38:50;;;;;;;5.88;4.03;;;;;;;14.00;87.19;95314.78;5133062;27;20204;-78
2022/09/06 00:41:17;;;;;;;9.27;3.65;;;;;;;13.90;87.30;95312.44;5133148;27;20205;-77
2022/09/06 00:43:44;;;;;;;5.10;3.63;;;;;;;13.86;87.32;95308.78;5133056;27;20205;-77
2022/09/06 00:46:15;;;;;;;6.97;4.00;;;;;;;13.82;87.34;95310.56;5132112;27;20270;-77
2022/09/06 00:48:43;;;;;;;5.95;3.50;;;;;;;13.79;87.67;95305.81;5112767;28;20217;-77
2022/09/06 00:51:15;;;;;;;6.47;3.90;;;;;;;13.77;87.57;95297.97;5112484;28;20197;-77
2022/09/06 00:53:44;;;;;;;5.22;3.63;;;;;;;13.81;87.18;95304.31;5112033;28;20190;-77
2022/09/06 00:56:11;;;;;;;7.22;4.78;;;;;;;13.81;87.05;95300.78;5112453;28;20202;-77
2022/09/06 00:58:38;;;;;;;9.90;4.70;;;;;;;13.85;86.58;95305.25;5111542;28;20251;-77
2022/09/06 01:01:06;;;;;;;6.30;3.55;;;;;;;13.86;86.47;95298.69;5112351;28;20202;-77
2022/09/06 01:03:34;;;;;;;7.28;2.58;;;;;;;13.90;86.11;95317.91;5112305;28;20205;-77
2022/09/06 01:06:14;;;;;;;6.43;3.88;;;;;;;13.94;85.75;95318.03;5111936;28;20598;-77
2022/09/06 01:08:57;;;;;;;4.72;3.15;;;;;;;13.95;86.24;95314.97;5111638;28;20478;-77
2022/09/06 01:11:47;;;;;;;4.55;2.97;;;;;;;13.99;86.18;95315.91;5111701;28;20221;-77
2022/09/06 01:14:25;;;;;;;5.38;3.47;;;;;;;14.04;85.79;95312.97;5111368;28;20551;-79
2022/09/06 01:16:58;;;;;;;4.30;3.08;;;;;;;13.94;86.23;95313.34;5111249;28;20590;-77
2022/09/06 01:19:57;;;;;;;5.20;3.17;;;;;;;13.79;87.31;95308.53;5112290;28;20200;-77
2022/09/06 01:22:44;;;;;;;4.70;3.22;;;;;;;13.79;87.36;95305.81;5111855;28;20267;-77
2022/09/06 01:25:33;;;;;;;8.48;3.47;;;;;;;13.71;87.61;95314.81;5111588;28;20610;-77
2022/09/06 01:28:25;;;;;;;4.95;3.30;;;;;;;13.80;87.09;95312.84;5111957;28;20190;-77
2022/09/06 01:31:03;;;;;;;4.63;3.42;;;;;;;13.83;87.13;95312.16;5124391;27;20232;-76
2022/09/06 01:33:38;;;;;;;4.82;3.17;;;;;;;13.73;86.88;95315.28;5131821;27;20674;-76
2022/09/06 01:36:09;;;;;;;6.72;3.47;;;;;;;13.66;87.12;95306.84;5132267;27;20208;-79
2022/09/06 01:38:36;;;;;;;5.32;3.33;;;;;;;13.64;87.23;95303.66;5131650;27;20185;-77
2022/09/06 01:41:04;;;;;;;10.52;6.43;;;;;;;13.56;87.69;95308.00;5131674;27;20283;-77
2022/09/06 01:43:34;;;;;;;7.07;4.10;;;;;;;13.57;87.68;95300.66;5131596;27;20605;-77
2022/09/06 01:46:07;;;;;;;7.70;3.90;;;;;;;13.61;87.67;95293.41;5131903;27;20189;-77
2022/09/06 01:48:49;;;;;;;4.72;3.50;;;;;;;13.56;87.89;95285.44;5111034;28;20778;-77
2022/09/06 01:51:28;;;;;;;5.07;3.08;;;;;;;13.52;87.77;95285.31;5111084;28;20243;-76
2022/09/06 01:54:07;;;;;;;4.32;3.25;;;;;;;13.53;87.70;95282.25;5111170;28;20330;-76
2022/09/06 01:56:43;;;;;;;5.35;3.47;;;;;;;13.47;87.98;95278.13;5111142;28;20309;-79
2022/09/06 01:59:41;;;;;;;4.63;3.13;;;;;;;13.41;88.45;95282.16;5111324;28;20574;-79
2022/09/06 02:02:14;;;;;;;5.28;3.20;;;;;;;13.41;88.75;95276.72;5110871;28;20768;-79
2022/09/06 02:04:45;;;;;;;4.95;3.45;;;;;;;13.34;88.92;95278.38;5110595;28;20189;-79
2022/09/06 02:07:17;;;;;;;6.00;3.25;;;;;;;13.43;88.84;95277.19;5110838;28;20257;-79
2022/09/06 02:09:49;;;;;;;6.40;3.33;;;;;;;13.39;88.56;95281.69;5110842;28;20200;-78
2022/09/06 02:12:19;;;;;;;3.70;2.88;;;;;;;13.35;88.39;95280.78;5110490;28;20290;-78
2022/09/06 02:14:51;;;;;;;5.70;3.47;;;;;;;13.31;88.94;95281.75;5110890;28;21022;-78
2022/09/06 02:17:23;;;;;;;4.97;3.60;;;;;;;13.28;88.86;95277.75;5109991;28;20254;-78
2022/09/06 02:19:57;;;;;;;8.25;3.97;;;;;;;13.31;88.78;95282.53;5110263;28;20211;-78
2022/09/06 02:22:28;;;;;;;9.05;4.15;;;;;;;13.34;88.68;95276.44;5110211;28;20221;-78
2022/09/06 02:24:59;;;;;;;6.95;3.70;;;;;;;13.38;88.21;95277.41;5109712;28;20598;-78
2022/09/06 02:27:26;;;;;;;7.57;4.45;;;;;;;13.42;87.83;95275.59;5110446;28;20760;-78
2022/09/06 02:29:54;;;;;;;6.32;3.80;;;;;;;13.42;87.84;95285.69;5115420;27;20229;-78
2022/09/06 02:32:24;;;;;;;4.78;3.25;;;;;;;13.27;88.36;95284.31;5130434;27;20726;-78
2022/09/06 02:34:54;;;;;;;7.15;3.60;;;;;;;13.28;88.82;95277.75;5130742;27;20227;-78
2022/09/06 02:37:21;;;;;;;4.30;3.25;;;;;;;13.22;88.69;95287.25;5130635;27;20225;-78
2022/09/06 02:39:48;;;;;;;7.88;3.88;;;;;;;13.30;88.43;95283.66;5131017;27;20261;-78
2022/09/06 02:42:16;;;;;;;4.50;3.40;;;;;;;13.26;88.08;95287.38;5130234;27;20205;-78
2022/09/06 02:44:43;;;;;;;4.20;3.20;;;;;;;13.22;88.36;95281.81;5130911;27;20253;-78
2022/09/06 02:47:11;;;;;;;4.60;3.42;;;;;;;13.20;88.28;95288.69;5121568;27;20198;-78
2022/09/06 02:49:38;;;;;;;4.25;3.30;;;;;;;13.08;88.72;95294.81;5109746;28;20198;-78
2022/09/06 02:52:05;;;;;;;5.80;3.55;;;;;;;13.12;88.86;95295.72;5109427;28;20229;-78
2022/09/06 02:54:32;;;;;;;4.57;3.33;;;;;;;13.09;89.11;95290.97;5109823;28;20636;-78
2022/09/06 02:56:59;;;;;;;6.43;3.40;;;;;;;13.14;89.13;95290.75;5110300;28;20202;-78
2022/09/06 02:59:26;;;;;;;4.78;3.70;;;;;;;13.14;88.32;95290.75;5110065;28;20220;-78
2022/09/06 03:01:53;;;;;;;5.20;3.50;;;;;;;13.16;88.48;95296.69;5109729;28;20237;-78
2022/09/06 03:04:21;;;;;;;4.80;3.40;;;;;;;13.13;88.85;95284.50;5110108;28;20205;-78
2022/09/06 03:06:48;;;;;;;9.57;3.97;;;;;;;13.10;89.31;95290.63;5109818;28;20270;-78
2022/09/06 03:09:15;;;;;;;7.43;3.63;;;;;;;12.95;89.69;95288.44;5109603;28;20198;-78
2022/09/06 03:11:42;;;;;;;7.63;3.28;;;;;;;12.82;90.36;95290.25;5109356;28;20197;-78
2022/09/06 03:14:08;;;;;;;7.70;3.50;;;;;;;12.79;91.44;95282.75;5109548;28;20682;-78
2022/09/06 03:16:37;;;;;;;3.80;3.03;;;;;;;12.74;90.98;95276.69;5110097;28;20197;-78
2022/09/06 03:19:04;;;;;;;5.50;3.30;;;;;;;12.75;91.43;95289.94;5110138;28;20194;-78
2022/09/06 03:21:32;;;;;;;8.07;3.80;;;;;;;12.63;92.00;95287.09;5109725;28;20205;-78
2022/09/06 03:23:59;;;;;;;4.53;3.33;;;;;;;12.59;92.14;95288.88;5109993;28;20206;-78
2022/09/06 03:26:26;;;;;;;4.82;2.92;;;;;;;12.58;92.24;95286.47;5109566;28;20610;-76
2022/09/06 03:28:54;;;;;;;4.95;3.47;;;;;;;12.64;92.46;95291.44;5110029;28;20274;-76
2022/09/06 03:31:21;;;;;;;10.70;3.63;;;;;;;12.64;92.02;95291.44;5127059;28;20229;-77
2022/09/06 03:33:48;;;;;;;5.20;3.20;;;;;;;12.67;92.07;95293.50;5129626;28;20595;-77
2022/09/06 03:36:15;;;;;;;5.97;3.70;;;;;;;12.65;91.82;95301.19;5130074;27;20221;-77
2022/09/06 03:38:44;;;;;;;6.25;4.10;;;;;;;12.70;91.94;95308.38;5130397;28;20204;-77
2022/09/06 03:41:10;;;;;;;8.80;3.80;;;;;;;12.76;91.49;95305.13;5130208;28;20201;-77
2022/09/06 03:43:37;;;;;;;8.15;4.00;;;;;;;12.78;91.23;95308.34;5130304;28;20204;-77
2022/09/06 03:46:04;;;;;;;5.82;3.72;;;;;;;12.78;90.68;95311.06;5130234;28;20666;-77
2022/09/06 03:48:31;;;;;;;6.55;3.80;;;;;;;12.76;90.63;95307.88;5109486;28;20251;-77
2022/09/06 03:50:58;;;;;;;6.57;3.83;;;;;;;12.76;91.04;95313.28;5109284;28;20254;-78
2022/09/06 03:53:28;;;;;;;4.70;3.75;;;;;;;12.77;90.54;95314.09;5109561;28;20278;-78
2022/09/06 03:55:57;;;;;;;5.47;3.50;;;;;;;12.75;90.58;95311.69;5109602;28;20335;-78
2022/09/06 03:58:25;;;;;;;6.22;3.47;;;;;;;12.77;90.95;95309.47;5109822;28;20205;-77
2022/09/06 04:01:00;;;;;;;6.18;3.65;;;;;;;12.80;90.59;95314.25;5109487;28;20258;-76
2022/09/06 04:03:27;;;;;;;7.20;3.53;;;;;;;12.96;89.75;95311.00;5112230;28;20276;-79
2022/09/06 04:05:54;;;;;;;4.30;3.33;;;;;;;12.80;90.01;95314.25;5113647;28;20194;-79
2022/09/06 04:08:21;;;;;;;6.53;3.45;;;;;;;12.90;89.93;95315.00;5113464;28;20508;-77
2022/09/06 04:10:50;;;;;;;7.13;3.58;;;;;;;12.97;89.97;95318.03;5113320;28;20561;-79
2022/09/06 04:13:19;;;;;;;4.22;3.33;;;;;;;12.97;90.18;95313.41;5113200;28;20362;-79
2022/09/06 04:15:46;;;;;;;10.40;3.63;;;;;;;13.35;89.66;95312.63;5112453;28;20657;-77
2022/09/06 04:18:14;;;;;;;7.00;3.90;;;;;;;14.27;87.35;95315.34;5113225;28;20300;-77
2022/09/06 04:20:40;;;;;;;5.78;3.88;;;;;;;15.26;82.09;95297.00;5113053;28;20282;-79
2022/09/06 04:23:07;;;;;;;5.05;3.72;;;;;;;16.28;78.15;95301.31;5112486;28;20225;-76
2022/09/06 04:25:35;;;;;;;6.47;3.47;;;;;;;17.08;73.72;95294.94;5112894;28;20289;-77
2022/09/06 04:28:02;;;;;;;4.60;3.30;;;;;;;18.03;70.42;95293.69;5112900;28;20262;-77
2022/09/06 04:30:30;;;;;;;6.00;3.38;;;;;;;18.59;68.06;95293.28;5122713;27;20277;-77
2022/09/06 04:32:57;;;;;;;6.78;3.30;;;;;;;19.43;65.56;95282.25;5133279;27;20332;-77
2022/09/06 04:35:24;;;;;;;6.65;4.65;;;;;;;20.04;63.75;95292.25;5132983;27;20257;-77
2022/09/06 04:37:51;;;;;;;5.90;4.35;;;;;;;20.30;61.71;95291.44;5132593;27;20290;-77
2022/09/06 04:40:18;;;;;;;4.97;2.97;;;;;;;20.86;60.67;95291.34;5132596;27;20197;-77
2022/09/06 04:42:44;;;;;;;5.43;3.45;;;;;;;21.08;60.87;95287.63;5132481;27;20201;-77
2022/09/06 04:45:12;;;;;;;5.75;3.05;;;;;;;20.84;59.24;95274.41;5132829;27;20205;-77
2022/09/06 04:47:40;;;;;;;4.55;3.15;;;;;;;21.17;59.05;95284.59;5119642;27;20205;-77
2022/09/06 04:50:07;;;;;;;5.50;3.40;;;;;;;21.42;58.13;95284.84;5112487;28;20209;-77
2022/09/06 04:52:34;;;;;;;5.15;3.92;;;;;;;22.04;55.81;95274.69;5111838;28;20836;-77
2022/09/06 04:55:01;;;;;;;7.78;4.30;;;;;;;23.36;52.92;95262.94;5112404;28;20202;-77
2022/09/06 04:57:28;;;;;;;4.13;2.95;;;;;;;23.34;52.46;95273.59;5112390;28;20258;-77
2022/09/06 04:59:55;;;;;;;4.80;4.25;;;;;;;23.54;52.51;95273.22;5112252;28;20257;-79
2022/09/06 05:02:22;;;;;;;6.25;4.57;;;;;;;23.72;51.80;95274.03;5112185;28;20222;-77
2022/09/06 05:04:51;;;;;;;5.07;4.30;;;;;;;24.73;49.22;95254.03;5111530;28;20609;-77
2022/09/06 05:07:17;;;;;;;6.68;4.32;;;;;;;24.87;48.57;95264.25;5112135;28;20198;-77
2022/09/06 05:09:44;;;;;;;7.00;4.47;;;;;;;24.12;49.90;95258.94;5111713;28;20330;-79
2022/09/06 05:12:11;;;;;;;4.82;4.28;;;;;;;23.80;50.39;95264.53;5112226;28;20205;-79
2022/09/06 05:14:38;;;;;;;6.90;4.95;;;;;;;23.58;50.98;95262.97;5111255;28;20294;-77
2022/09/06 05:17:05;;;;;;;8.52;4.70;;;;;;;24.18;49.39;95267.66;5111581;28;20346;-79
2022/09/06 05:19:31;;;;;;;6.07;4.43;;;;;;;24.16;49.73;95259.72;5111646;28;20205;-78
2022/09/06 05:21:59;;;;;;;6.55;4.65;;;;;;;24.23;49.47;95264.47;5111769;28;20730;-78
2022/09/06 05:24:26;;;;;;;8.55;4.93;;;;;;;24.65;48.76;95258.78;5111514;28;20282;-80
2022/09/06 05:26:53;;;;;;;7.85;4.00;;;;;;;25.15;46.87;95264.88;5111762;28;20205;-79
2022/09/06 05:29:20;;;;;;;5.90;4.53;;;;;;;25.10;47.35;95259.00;5111811;27;20617;-79
2022/09/06 05:31:47;;;;;;;8.82;4.60;;;;;;;25.42;47.07;95253.22;5132808;27;20246;-79
2022/09/06 05:34:14;;;;;;;6.75;4.60;;;;;;;25.54;45.92;95258.28;5131949;27;20273;-80
2022/09/06 05:36:41;;;;;;;7.38;4.85;;;;;;;25.05;47.08;95260.19;5131886;27;20624;-80
2022/09/06 05:39:09;;;;;;;6.10;4.70;;;;;;;25.20;47.17;95258.13;5132480;27;20208;-79
2022/09/06 05:41:36;;;;;;;8.65;5.10;;;;;;;25.95;45.03;95261.13;5132206;27;20201;-79
2022/09/06 05:44:03;;;;;;;8.95;5.32;;;;;;;25.79;45.49;95258.09;5132153;27;20246;-78
2022/09/06 05:46:30;;;;;;;8.93;5.28;;;;;;;25.85;45.12;95267.56;5127897;27;20194;-79
2022/09/06 05:48:59;;;;;;;6.20;4.93;;;;;;;25.30;46.25;95264.78;5110366;28;20680;-80
2022/09/06 05:51:27;;;;;;;7.38;4.95;;;;;;;25.31;46.14;95256.06;5111252;28;20206;-78
2022/09/06 05:53:53;;;;;;;7.57;5.32;;;;;;;24.97;47.15;95263.41;5111237;28;20704;-80
2022/09/06 05:56:22;;;;;;;8.02;4.90;;;;;;;25.42;46.48;95261.56;5110676;28;20206;-80
2022/09/06 05:58:49;;;;;;;6.95;5.00;;;;;;;25.97;44.71;95261.47;5111379;28;20224;-80
2022/09/06 06:01:18;;;;;;;6.63;4.82;;;;;;;26.60;43.80;95250.13;5110848;28;20222;-80
2022/09/06 06:03:50;;;;;;;11.05;5.18;;;;;;;27.01;42.90;95252.81;5110649;28;20221;-80
2022/09/06 06:06:17;;;;;;;8.45;5.00;;;;;;;26.94;43.02;95247.31;5110287;28;20227;-80
2022/09/06 06:08:44;;;;;;;7.18;5.00;;;;;;;27.18;42.80;95246.22;5111208;28;20264;-80
2022/09/06 06:11:11;;;;;;;7.32;4.80;;;;;;;27.56;42.17;95247.63;5111125;28;20205;-80
2022/09/06 06:13:40;;;;;;;8.77;5.10;;;;;;;27.96;40.83;95239.41;5111130;28;20305;-79
2022/09/06 06:16:08;;;;;;;7.30;5.28;;;;;;;27.83;41.37;95238.44;5111016;28;20803;-80
2022/09/06 06:18:35;;;;;;;10.35;5.60;;;;;;;28.79;39.51;95237.44;5111021;28;20220;-80
2022/09/06 06:21:13;;;;;;;6.32;5.10;;;;;;;28.44;40.26;95230.56;5110566;28;20250;-79
2022/09/06 06:23:40;;;;;;;8.98;5.30;;;;;;;27.49;41.26;95233.78;5110999;28;20225;-80
2022/09/06 06:26:08;;;;;;;6.82;5.82;;;;;;;27.86;40.48;95235.59;5109473;28;20266;-80
2022/09/06 06:28:35;;;;;;;7.30;5.40;;;;;;;27.99;40.31;95235.78;5111255;28;20202;-80
2022/09/06 06:31:04;;;;;;;7.22;5.32;;;;;;;27.61;41.06;95240.03;5124818;27;20281;-80
2022/09/06 06:33:32;;;;;;;9.45;5.30;;;;;;;28.92;39.03;95232.78;5131329;27;20761;-80
2022/09/06 06:36:00;;;;;;;9.05;5.78;;;;;;;26.76;41.86;95244.78;5130453;27;20221;-78
2022/09/06 06:38:31;;;;;;;8.30;5.40;;;;;;;26.44;43.15;95237.59;5131188;27;20238;-81
2022/09/06 06:40:58;;;;;;;7.90;5.68;;;;;;;26.92;43.10;95245.72;5131172;27;20193;-78
2022/09/06 06:43:25;;;;;;;7.30;5.57;;;;;;;27.49;41.20;95236.56;5131014;27;20208;-79
2022/09/06 06:45:51;;;;;;;7.18;5.00;;;;;;;28.54;39.15;95226.00;5130578;27;20617;-81
2022/09/06 06:48:20;;;;;;;11.65;6.07;;;;;;;28.10;40.15;95236.38;5111932;27;20721;-79
2022/09/06 06:50:47;;;;;;;5.68;4.95;;;;;;;28.24;40.46;95236.13;5109761;28;20201;-79
2022/09/06 06:53:14;;;;;;;5.70;4.82;;;;;;;28.85;38.99;95232.91;5110294;28;20691;-79
2022/09/06 06:55:47;;;;;;;7.05;5.50;;;;;;;29.76;36.84;95216.50;5110046;28;20205;-79
2022/09/06 06:58:14;;;;;;;7.82;6.00;;;;;;;29.44;37.53;95234.81;5109422;28;20229;-80
2022/09/06 07:00:41;;;;;;;7.00;5.40;;;;;;;28.74;38.42;95226.75;5109801;28;20198;-81
2022/09/06 07:03:08;;;;;;;8.68;5.65;;;;;;;27.18;41.16;95251.78;5110680;28;20627;-78
2022/09/06 07:05:37;;;;;;;7.07;5.15;;;;;;;26.50;42.80;95246.28;5109701;28;20250;-79
2022/09/06 07:08:06;;;;;;;8.80;4.80;;;;;;;25.73;45.09;95248.63;5109710;28;20202;-78
2022/09/06 07:10:34;;;;;;;8.70;6.32;;;;;;;24.80;45.79;95243.69;5109355;28;20197;-79
2022/09/06 07:13:01;;;;;;;10.15;5.55;;;;;;;25.31;44.90;95239.41;5109393;28;20206;-79
2022/09/06 07:15:28;;;;;;;6.85;5.40;;;;;;;25.22;46.41;95243.84;5109217;28;20198;-79
2022/09/06 07:17:56;;;;;;;8.95;5.40;;;;;;;25.84;45.90;95249.31;5110082;28;20201;-81
2022/09/06 07:20:24;;;;;;;10.27;5.68;;;;;;;24.95;46.45;95257.50;5109990;28;20202;-79
2022/09/06 07:23:00;;;;;;;6.60;5.47;;;;;;;24.42;47.18;95258.50;5109632;28;20303;-78
2022/09/06 07:25:27;;;;;;;7.50;5.15;;;;;;;24.56;46.78;95255.66;5110092;28;20186;-79
2022/09/06 07:28:00;;;;;;;8.45;5.82;;;;;;;23.45;50.03;95264.50;5109595;28;20201;-79
2022/09/06 07:30:27;;;;;;;11.27;5.90;;;;;;;23.39;50.42;95262.13;5119131;28;20258;-79
2022/09/06 07:32:53;;;;;;;9.25;5.95;;;;;;;24.15;48.32;95262.91;5130190;28;20201;-78
2022/09/06 07:35:20;;;;;;;8.85;5.60;;;;;;;24.08;48.93;95258.94;5130047;28;20239;-79
2022/09/06 07:37:55;;;;;;;8.02;5.70;;;;;;;23.86;49.07;95264.91;5132126;27;20220;-78
2022/09/06 07:40:24;;;;;;;6.93;5.40;;;;;;;24.31;48.39;95260.50;5134644;27;20200;-79
2022/09/06 07:42:51;;;;;;;7.45;6.25;;;;;;;24.10;49.13;95262.09;5134539;27;20197;-79
2022/09/06 07:45:17;;;;;;;7.80;6.35;;;;;;;24.82;47.67;95261.88;5134167;27;20205;-81
2022/09/06 07:47:44;;;;;;;7.90;5.63;;;;;;;25.25;46.24;95257.69;5120281;27;20246;-80
2022/09/06 07:50:12;;;;;;;8.50;5.90;;;;;;;24.45;48.75;95263.25;5113721;28;20208;-79
2022/09/06 07:52:38;;;;;;;9.85;5.70;;;;;;;24.46;48.16;95262.06;5113102;28;20202;-79
2022/09/06 07:55:06;;;;;;;8.52;5.68;;;;;;;24.25;48.18;95246.28;5113393;28;20259;-80
2022/09/06 07:57:34;;;;;;;8.27;5.70;;;;;;;24.59;48.85;95254.09;5113313;28;20664;-79
2022/09/06 08:00:02;;;;;;;9.32;5.72;;;;;;;24.07;49.01;95246.28;5113229;28;20204;-79
2022/09/06 08:02:29;;;;;;;9.52;6.13;;;;;;;23.92;48.74;95250.25;5113333;28;20332;-79
2022/09/06 08:04:56;;;;;;;8.98;5.35;;;;;;;24.08;49.37;95247.88;5113399;28;20197;-79
2022/09/06 08:07:24;;;;;;;9.75;6.20;;;;;;;23.38;49.91;95248.69;5113361;28;20213;-78
2022/09/06 08:09:51;;;;;;;6.78;5.80;;;;;;;23.04;51.50;95251.84;5113114;28;20194;-79
2022/09/06 08:12:18;;;;;;;8.93;6.07;;;;;;;23.43;50.25;95234.47;5113330;28;20288;-79
2022/09/06 08:14:46;;;;;;;7.75;5.72;;;;;;;23.26;50.78;95241.56;5113052;28;20226;-78
2022/09/06 08:17:13;;;;;;;8.38;5.15;;;;;;;22.91;50.54;95263.66;5113240;28;20202;-79
2022/09/06 08:19:40;;;;;;;8.13;5.30;;;;;;;22.90;49.84;95251.00;5113381;28;20194;-77
2022/09/06 08:22:07;;;;;;;6.60;5.65;;;;;;;22.16;53.02;95248.72;5113221;28;20313;-79
2022/09/06 08:24:35;;;;;;;6.90;5.45;;;;;;;22.90;51.79;95245.47;5112764;28;20212;-80
2022/09/06 08:27:02;;;;;;;6.00;4.72;;;;;;;23.05;49.71;95247.09;5112984;28;20208;-79
2022/09/06 08:29:29;;;;;;;8.45;5.07;;;;;;;23.69;49.09;95236.06;5113990;27;20276;-79
2022/09/06 08:31:57;;;;;;;6.68;5.43;;;;;;;23.95;48.35;95232.06;5132714;27;20208;-78
2022/09/06 08:34:24;;;;;;;12.30;6.28;;;;;;;23.45;50.48;95236.84;5133239;27;20221;-79
2022/09/06 08:36:51;;;;;;;7.03;5.47;;;;;;;22.73;51.62;95237.91;5133205;27;20371;-76
2022/09/06 08:39:18;;;;;;;5.97;5.13;;;;;;;22.05;54.10;95239.59;5133000;27;20254;-80
2022/09/06 08:41:51;;;;;;;6.45;5.32;;;;;;;22.35;54.68;95237.38;5132867;27;20636;-79
2022/09/06 08:44:22;;;;;;;7.57;4.80;;;;;;;22.55;51.45;95235.09;5133254;27;20195;-80
2022/09/06 08:46:54;;;;;;;5.97;4.80;;;;;;;22.63;51.49;95226.44;5127039;27;20193;-78
2022/09/06 08:49:24;;;;;;;6.93;4.60;;;;;;;22.72;51.66;95216.97;5111235;28;20636;-77
2022/09/06 08:52:22;;;;;;;5.70;4.53;;;;;;;22.36;51.59;95222.41;5112574;28;20194;-78
2022/09/06 08:54:56;;;;;;;4.63;4.20;;;;;;;22.47;51.77;95223.22;5112313;28;20282;-77
2022/09/06 08:57:36;;;;;;;8.73;4.88;;;;;;;22.48;51.44;95219.28;5112248;28;20443;-78
2022/09/06 09:00:07;;;;;;;7.38;4.70;;;;;;;23.22;51.08;95196.56;5112077;28;20196;-81
2022/09/06 09:02:42;;;;;;;6.55;5.38;;;;;;;23.26;50.45;95205.63;5111528;28;20276;-77
2022/09/06 09:05:19;;;;;;;8.02;6.13;;;;;;;23.14;50.57;95199.72;5111754;28;20819;-80
2022/09/06 09:07:54;;;;;;;7.25;5.35;;;;;;;22.95;51.88;95204.44;5111726;28;20258;-77
2022/09/06 09:10:27;;;;;;;7.70;4.97;;;;;;;23.04;52.42;95193.00;5111832;28;20214;-79
2022/09/06 09:12:54;;;;;;;7.03;4.75;;;;;;;23.62;50.06;95180.78;5111838;28;20193;-79
2022/09/06 09:15:22;;;;;;;5.63;5.05;;;;;;;24.22;48.60;95185.31;5111776;28;20752;-80
2022/09/06 09:17:51;;;;;;;7.82;4.38;;;;;;;24.23;47.56;95170.31;5111475;28;20209;-79
2022/09/06 09:20:20;;;;;;;6.72;5.00;;;;;;;23.57;48.14;95183.94;5111848;28;20244;-78
2022/09/06 09:22:48;;;;;;;9.02;5.28;;;;;;;23.02;48.39;95176.81;5111622;28;20221;-81
2022/09/06 09:25:20;;;;;;;5.65;4.60;;;;;;;23.47;48.55;95168.09;5111131;28;20235;-79
2022/09/06 09:27:49;;;;;;;8.18;4.65;;;;;;;23.81;47.85;95166.47;5110920;28;20628;-80
2022/09/06 09:30:16;;;;;;;9.90;4.90;;;;;;;23.97;48.64;95164.06;5118941;27;20308;-79
2022/09/06 09:32:45;;;;;;;7.68;4.20;;;;;;;24.42;47.14;95167.09;5131198;27;20201;-80
2022/09/06 09:35:18;;;;;;;5.60;4.35;;;;;;;24.36;46.81;95152.84;5131346;27;20815;-80
2022/09/06 09:37:47;;;;;;;7.57;4.40;;;;;;;24.53;47.89;95153.97;5132485;27;20277;-80
2022/09/06 09:40:18;;;;;;;6.90;4.13;;;;;;;24.13;48.39;95151.75;5131929;27;20201;-78
2022/09/06 09:42:45;;;;;;;8.30;4.78;;;;;;;24.00;47.89;95152.19;5132326;27;20193;-79
2022/09/06 09:45:25;;;;;;;6.82;4.63;;;;;;;23.77;48.78;95149.13;5131910;27;20569;-76
2022/09/06 09:47:52;;;;;;;7.10;4.80;;;;;;;23.55;48.41;95151.13;5116813;27;20273;-75
2022/09/06 09:50:26;;;;;;;8.43;4.80;;;;;;;23.53;48.59;95155.47;5111078;28;20703;-78
2022/09/06 09:52:55;;;;;;;5.53;4.30;;;;;;;23.58;48.20;95157.84;5111206;28;20239;-80
2022/09/06 09:55:24;;;;;;;4.95;4.45;;;;;;;23.67;47.42;95144.38;5110853;28;20282;-79
2022/09/06 09:57:53;;;;;;;4.90;4.22;;;;;;;23.93;46.54;95146.66;5110861;28;20198;-80
2022/09/06 10:00:35;;;;;;;6.03;4.72;;;;;;;24.01;47.77;95136.38;5110903;28;20259;-80
2022/09/06 10:03:11;;;;;;;6.13;4.63;;;;;;;24.15;46.93;95141.06;5110645;28;20213;-79
2022/09/06 10:05:40;;;;;;;6.75;4.80;;;;;;;24.07;46.42;95135.56;5110592;28;20185;-80
2022/09/06 10:08:12;;;;;;;5.57;4.93;;;;;;;24.14;47.17;95133.94;5110860;28;20246;-79
2022/09/06 10:10:42;;;;;;;5.70;4.20;;;;;;;23.97;45.93;95124.53;5111247;28;20190;-79
2022/09/06 10:13:18;;;;;;;6.10;4.45;;;;;;;24.05;46.60;95135.16;5110854;28;20276;-80
2022/09/06 10:15:46;;;;;;;7.40;4.72;;;;;;;24.00;47.99;95130.06;5110806;28;20308;-79
2022/09/06 10:18:17;;;;;;;6.20;4.05;;;;;;;24.09;45.94;95130.41;5110639;28;20251;-79
2022/09/06 10:20:49;;;;;;;6.70;3.97;;;;;;;24.07;44.31;95127.25;5111094;28;20289;-80
2022/09/06 10:23:29;;;;;;;5.13;3.75;;;;;;;24.06;44.62;95128.44;5110396;28;20655;-80
2022/09/06 10:26:02;;;;;;;6.07;4.47;;;;;;;24.02;44.96;95116.59;5110456;28;20239;-80
2022/09/06 10:28:31;;;;;;;5.72;4.35;;;;;;;24.27;44.83;95115.72;5110509;28;20194;-80
2022/09/06 10:31:29;;;;;;;8.40;3.80;;;;;;;24.58;43.77;95112.00;5124457;27;20229;-80
2022/09/06 10:34:07;;;;;;;4.97;4.13;;;;;;;24.82;42.77;95109.44;5130744;27;20315;-77
2022/09/06 10:36:36;;;;;;;4.68;3.42;;;;;;;24.42;41.67;95100.59;5130228;27;20224;-77
2022/09/06 10:39:19;;;;;;;4.68;2.92;;;;;;;24.58;41.59;95106.44;5130577;27;20262;-77
2022/09/06 10:41:59;;;;;;;3.67;2.92;;;;;;;24.97;41.21;95105.41;5130578;27;20197;-80
2022/09/06 10:44:41;;;;;;;3.28;2.95;;;;;;;24.67;40.20;95103.22;5130989;27;20189;-79
2022/09/06 10:47:11;;;;;;;3.85;3.40;;;;;;;24.72;39.22;95106.34;5121429;27;20636;-79
2022/09/06 10:49:40;;;;;;;3.78;3.00;;;;;;;25.03;38.40;95095.44;5109732;28;20202;-79
2022/09/06 10:52:11;;;;;;;2.70;2.50;;;;;;;24.85;38.59;95103.09;5109628;28;20246;-80
2022/09/06 10:54:45;;;;;;;4.53;3.35;;;;;;;25.36;39.30;95096.72;5109918;28;20752;-81
2022/09/06 10:57:19;;;;;;;3.28;2.97;;;;;;;25.71;38.41;95087.25;5110090;28;20190;-81
2022/09/06 10:59:50;;;;;;;3.28;2.97;;;;;;;25.68;39.11;95090.88;5109686;28;20197;-81
2022/09/06 11:02:34;;;;;;;4.35;2.80;;;;;;;25.76;36.69;95090.38;5109709;28;20361;-79
2022/09/06 11:05:07;;;;;;;3.13;2.65;;;;;;;25.76;37.72;95086.81;5109144;28;20204;-80
2022/09/06 11:07:40;;;;;;;3.42;2.60;;;;;;;25.22;37.84;95075.47;5110199;28;20221;-77
2022/09/06 11:10:14;;;;;;;3.63;2.70;;;;;;;25.36;38.23;95086.41;5109897;28;20599;-80
2022/09/06 11:12:47;;;;;;;4.05;3.10;;;;;;;24.80;38.99;95087.69;5112036;28;20204;-78
2022/09/06 11:15:16;;;;;;;3.38;2.80;;;;;;;25.22;38.16;95081.00;5114232;28;20308;-77
2022/09/06 11:17:48;;;;;;;3.17;2.88;;;;;;;25.25;38.67;95085.75;5114334;28;20193;-80
2022/09/06 11:20:23;;;;;;;3.08;2.67;;;;;;;25.56;37.59;95080.28;5114039;28;20189;-79
2022/09/06 11:23:34;;;;;;;3.25;2.80;;;;;;;25.46;35.78;95085.50;5113875;28;20274;-78
2022/09/06 11:26:27;;;;;;;2.47;2.28;;;;;;;25.61;35.93;95082.59;5088333;28;20609;-79
2022/09/06 11:28:56;;;;;;;3.03;2.50;;;;;;;25.37;35.18;95082.44;5110572;28;20194;-78
2022/09/06 11:31:25;;;;;;;4.60;2.30;;;;;;;25.53;35.92;95084.66;5130960;27;20265;-81
2022/09/06 11:34:06;;;;;;;4.28;2.40;;;;;;;25.52;35.20;95082.31;5134193;27;20257;-80
2022/09/06 11:36:37;;;;;;;2.22;2.00;;;;;;;25.89;32.79;95073.97;5134002;27;20498;-79
2022/09/06 11:39:07;;;;;;;2.63;2.10;;;;;;;26.28;32.00;95072.66;5134565;27;20655;-79
2022/09/06 11:41:39;;;;;;;3.35;2.35;;;;;;;26.42;33.23;95066.94;5134814;27;20189;-79
2022/09/06 11:44:07;;;;;;;4.93;2.00;;;;;;;26.81;32.25;95064.34;5134033;27;20615;-80
2022/09/06 11:47:00;;;;;;;3.42;1.90;;;;;;;27.36;31.49;95051.13;5129948;27;20190;-79
2022/09/06 11:49:37;;;;;;;2.72;2.33;;;;;;;27.46;32.48;95045.38;5113486;28;20276;-79